Ora Direzione Vento Velocita' Vento Media Vento Raffica Max. Temperatura Wind Chill Pioggia Pressione
14:33:20.0338 °(NNW)5.4 Kts4.9 Kts25.3 Kts14.1 °C13.5 °C0.0 mm1019.6 Hpa
14:12:15.00 °(N)4.9 Kts5.2 Kts25.3 Kts14.0 °C13.6 °C0.0 mm1019.7 Hpa
13:52:58.023 °(NNE)5.2 Kts4.9 Kts25.3 Kts13.9 °C13.3 °C0.0 mm1019.9 Hpa
13:33:11.023 °(NNE)5.6 Kts6.0 Kts25.3 Kts13.9 °C13.2 °C0.0 mm1020.0 Hpa
13:12:01.0338 °(NNW)9.7 Kts9.5 Kts25.3 Kts13.8 °C12.3 °C0.0 mm1020.3 Hpa
12:52:59.0338 °(NNW)9.7 Kts9.5 Kts25.3 Kts13.8 °C12.3 °C0.0 mm1020.3 Hpa
12:31:57.0338 °(NNW)9.9 Kts8.2 Kts25.3 Kts13.8 °C12.3 °C0.0 mm1020.4 Hpa
12:12:58.0338 °(NNW)7.0 Kts8.7 Kts25.3 Kts14.1 °C13.2 °C0.0 mm1020.5 Hpa
11:51:39.0338 °(NNW)10.3 Kts9.3 Kts25.3 Kts13.9 °C12.4 °C0.0 mm1020.8 Hpa
11:32:38.0338 °(NNW)8.7 Kts8.9 Kts25.3 Kts13.6 °C12.2 °C0.0 mm1020.7 Hpa
11:11:31.0338 °(NNW)10.5 Kts9.3 Kts25.3 Kts13.3 °C11.6 °C0.0 mm1020.8 Hpa
10:52:28.0338 °(NNW)10.9 Kts10.5 Kts25.3 Kts12.8 °C10.9 °C0.0 mm1020.8 Hpa
10:31:22.0338 °(NNW)12.4 Kts13.0 Kts25.3 Kts12.2 °C9.9 °C0.0 mm1020.9 Hpa
10:12:23.0338 °(NNW)11.9 Kts14.2 Kts25.3 Kts12.1 °C9.9 °C0.0 mm1020.8 Hpa
09:53:18.0338 °(NNW)11.5 Kts12.2 Kts25.3 Kts11.9 °C9.7 °C0.0 mm1020.6 Hpa
09:32:20.0315 °(NW)8.4 Kts9.7 Kts25.3 Kts11.8 °C10.1 °C0.0 mm1020.5 Hpa
09:11:44.0338 °(NNW)8.2 Kts7.2 Kts25.3 Kts11.9 °C10.2 °C0.0 mm1020.5 Hpa
08:52:43.0293 °(WNW)7.2 Kts7.8 Kts25.3 Kts11.9 °C10.5 °C0.0 mm1020.4 Hpa
08:31:31.0315 °(NW)7.0 Kts7.2 Kts25.3 Kts11.8 °C10.4 °C0.0 mm1020.0 Hpa
08:12:31.0315 °(NW)8.2 Kts6.8 Kts25.3 Kts11.8 °C10.1 °C0.0 mm1019.9 Hpa